Data for 11/05/2018

Time Sea-Level Adjusted Pressure Absolute Pressure Temperature Relative Humidity Dew Point   
(mb) (inHg) (mb) (inHg) (C) (F) (%) (C) (F)
00:05 1011 29.85 840 24.81 4.9 40.9 51 -4.4 24
00:10 1011 29.85 840 24.81 4.9 40.8 50 -4.6 23.8
00:15 1011 29.85 840 24.81 4.9 40.8 50 -4.7 23.5
00:20 1011 29.85 840 24.81 4.9 40.8 50 -4.6 23.7
00:25 1011 29.85 840 24.81 4.9 40.8 50 -4.7 23.5
00:30 1011 29.85 840 24.81 4.8 40.7 50 -4.7 23.5
00:35 1011 29.85 840 24.81 4.8 40.7 49 -4.9 23.3
00:40 1011 29.85 840 24.81 4.9 40.8 50 -4.8 23.4
00:45 1011 29.85 840 24.81 4.9 40.9 49 -4.9 23.1
00:50 1011 29.85 840 24.81 5 41 49 -4.9 23.3
00:55 1011 29.85 840 24.81 5 41 48 -5.1 22.8
01:00 1011 29.85 840 24.81 5 41.1 48 -5.2 22.7
01:05 1011 29.85 840 24.81 5.1 41.3 47 -5.1 22.7
01:10 1011 29.85 840 24.81 5.2 41.3 47 -5.2 22.6
01:15 1011 29.85 840 24.81 5.2 41.4 47 -5.1 22.8
01:20 1011 29.85 841 24.83 5.2 41.3 48 -5 23
01:25 1011 29.85 841 24.83 5.1 41.2 48 -4.9 23.2
01:30 1011 29.85 841 24.83 5.1 41.1 49 -4.7 23.5
01:35 1011 29.85 841 24.83 4.9 40.8 51 -4.3 24.2
01:40 1012 29.88 841 24.83 4.7 40.4 53 -4.2 24.5
01:45 1012 29.88 841 24.83 4.6 40.3 54 -3.8 25.1
01:50 1011 29.85 841 24.83 4.5 40 56 -3.4 25.8
01:55 1011 29.85 841 24.83 4.4 39.9 58 -3.2 26.3
02:00 1011 29.85 841 24.83 4.3 39.8 59 -3 26.5
02:05 1011 29.85 841 24.83 4.3 39.7 60 -2.9 26.8
02:10 1011 29.85 841 24.83 4.3 39.7 59 -3 26.7
02:15 1011 29.85 841 24.83 4.4 40 57 -3.3 26
02:20 1011 29.85 841 24.83 4.6 40.3 57 -3.2 26.2
02:25 1011 29.85 841 24.83 4.7 40.4 55 -3.5 25.7
02:30 1011 29.85 841 24.83 4.8 40.6 56 -3.4 26
02:35 1011 29.85 840 24.81 4.7 40.4 56 -3.4 25.9
02:40 1011 29.85 840 24.81 4.6 40.3 56 -3.4 25.9
02:45 1011 29.85 840 24.81 4.6 40.3 54 -3.8 25.2
02:50 1011 29.85 841 24.83 4.7 40.5 54 -3.8 25.1
02:55 1011 29.85 841 24.83 4.8 40.6 54 -3.8 25.2
03:00 1011 29.85 841 24.83 4.7 40.5 56 -3.4 25.8
03:05 1011 29.85 841 24.83 4.6 40.2 56 -3.6 25.6
03:10 1011 29.85 841 24.83 4.6 40.3 55 -3.7 25.4
03:15 1012 29.88 841 24.83 4.7 40.4 53 -4 24.9
03:20 1012 29.88 841 24.83 4.6 40.4 57 -3.2 26.2
03:25 1012 29.88 841 24.83 4.5 40 57 -3.3 26
03:30 1012 29.88 841 24.83 4.5 40.1 57 -3.4 25.9
03:35 1012 29.88 841 24.83 4.5 40.1 57 -3.3 26
03:40 1012 29.88 841 24.83 4.5 40.1 57 -3.3 26
03:45 1012 29.88 841 24.83 4.5 40.1 57 -3.2 26.2
03:50 1012 29.88 841 24.83 4.5 40 56 -3.4 25.8
03:55 1012 29.88 841 24.83 4.5 40.2 56 -3.4 25.9
04:00 1012 29.88 841 24.83 4.5 40.1 57 -3.4 25.9
04:05 1012 29.88 841 24.83 4.4 40 57 -3.3 26
04:10 1012 29.88 841 24.83 4.4 40 57 -3.3 26
04:15 1012 29.88 841 24.83 4.4 39.9 57 -3.5 25.7
04:20 1012 29.88 841 24.83 4.4 39.9 56 -3.6 25.5
04:25 1012 29.88 841 24.83 4.5 40 56 -3.4 25.8
04:30 1012 29.88 841 24.83 4.4 39.9 59 -3 26.5
04:35 1012 29.88 841 24.83 4.3 39.7 58 -3.3 26.1
04:40 1012 29.88 841 24.83 4.3 39.7 59 -3.1 26.4
04:45 1012 29.88 841 24.83 4.2 39.5 60 -3 26.6
04:50 1012 29.88 841 24.83 4.1 39.3 60 -3 26.7
04:55 1012 29.88 841 24.83 4 39.3 61 -2.9 26.8
05:00 1012 29.88 841 24.83 4.1 39.4 60 -2.9 26.8
05:05 1012 29.88 841 24.83 4.2 39.5 60 -2.8 26.9
05:10 1012 29.88 841 24.83 4.1 39.3 61 -2.9 26.8
05:15 1012 29.88 841 24.83 4 39.1 60 -3.1 26.4
05:20 1012 29.88 841 24.83 3.9 39.1 59 -3.4 25.8
05:25 1012 29.88 841 24.83 4 39.2 60 -3.1 26.3
05:30 1012 29.88 841 24.83 3.9 39.1 60 -3.2 26.2
05:35 1012 29.88 842 24.86 3.9 39.1 59 -3.3 26.1
05:40 1012 29.88 842 24.86 3.9 39 59 -3.4 25.9
05:45 1012 29.88 842 24.86 3.9 38.9 58 -3.7 25.4
05:50 1013 29.91 842 24.86 3.7 38.7 59 -3.6 25.6
05:55 1013 29.91 842 24.86 3.5 38.3 63 -2.9 26.8
06:00 1013 29.91 842 24.86 3.3 37.9 65 -2.6 27.4
06:05 1013 29.91 842 24.86 3.1 37.6 68 -2.2 28
06:10 1013 29.91 842 24.86 2.9 37.2 71 -1.8 28.7
06:15 1013 29.91 842 24.86 2.7 36.9 72 -1.8 28.8
06:20 1013 29.91 842 24.86 2.6 36.7 74 -1.6 29.1
06:25 1013 29.91 842 24.86 2.5 36.5 75 -1.6 29.1
06:30 1013 29.91 842 24.86 2.4 36.4 75 -1.5 29.3
06:35 1013 29.91 842 24.86 2.4 36.3 76 -1.4 29.4
06:40 1013 29.91 842 24.86 2.3 36.2 77 -1.4 29.6
06:45 1013 29.91 842 24.86 2.3 36.1 77 -1.3 29.6
06:50 1013 29.91 842 24.86 2.2 36 78 -1.3 29.7
06:55 1013 29.91 842 24.86 2.2 36 78 -1.3 29.7
07:00 1013 29.91 842 24.86 2.2 36 78 -1.2 29.9
07:05 1013 29.91 842 24.86 2.2 35.9 78 -1.2 29.8
07:10 1013 29.91 842 24.86 2.1 35.8 79 -1.2 29.8
07:15 1013 29.91 842 24.86 2.2 35.9 78 -1.3 29.7
07:20 1013 29.91 843 24.89 2.2 36 77 -1.3 29.7
07:25 1013 29.91 843 24.89 2.2 36 77 -1.4 29.6
07:30 1013 29.91 843 24.89 2.3 36.1 77 -1.3 29.7
07:35 1013 29.91 843 24.89 2.3 36.1 77 -1.3 29.6
07:40 1013 29.91 843 24.89 2.2 35.9 79 -1.2 29.9
07:45 1013 29.91 843 24.89 2.1 35.7 79 -1.3 29.7
07:50 1013 29.91 843 24.89 2 35.6 79 -1.3 29.7
07:55 1014 29.94 843 24.89 1.9 35.5 80 -1.2 29.9
08:00 1013 29.91 843 24.89 2 35.5 80 -1.1 30
08:05 1014 29.94 843 24.89 2.1 35.8 78 -1.3 29.7
08:10 1014 29.94 843 24.89 2.3 36.1 77 -1.4 29.5
08:15 1014 29.94 843 24.89 2.5 36.4 74 -1.7 29
08:20 1014 29.94 843 24.89 2.5 36.4 71 -2.2 28
08:25 1014 29.94 843 24.89 2.5 36.5 70 -2.3 27.8
08:30 1014 29.94 843 24.89 2.6 36.7 68 -2.7 27.1
08:35 1014 29.94 843 24.89 3.1 37.5 65 -2.9 26.9
08:40 1014 29.94 843 24.89 3.3 37.9 63 -3.1 26.5
08:45 1014 29.94 843 24.89 3.4 38.2 62 -3.1 26.4
08:50 1014 29.94 843 24.89 3.5 38.3 62 -3 26.6
08:55 1014 29.94 843 24.89 3.4 38.2 61 -3.3 26
09:00 1014 29.94 843 24.89 3.5 38.3 60 -3.5 25.6
09:05 1014 29.94 843 24.89 3.7 38.6 61 -3.2 26.2
09:10 1014 29.94 843 24.89 3.8 38.9 62 -2.7 27.1
09:15 1014 29.94 843 24.89 3.9 39 62 -2.8 27
09:20 1014 29.94 843 24.89 4 39.2 60 -3 26.6
09:25 1014 29.94 843 24.89 4 39.2 60 -3 26.6
09:30 1014 29.94 843 24.89 4.1 39.3 58 -3.3 26
09:35 1014 29.94 843 24.89 4.2 39.6 56 -3.7 25.3
09:40 1014 29.94 843 24.89 4.2 39.6 56 -3.9 25
09:45 1014 29.94 843 24.89 4.3 39.7 56 -3.8 25.1
09:50 1014 29.94 843 24.89 4.2 39.6 54 -4.2 24.4
09:55 1014 29.94 843 24.89 4 39.1 57 -3.8 25.2
10:00 1014 29.94 843 24.89 3.7 38.7 60 -3.4 25.9
10:05 1014 29.94 843 24.89 3.6 38.5 60 -3.4 25.9
10:10 1014 29.94 843 24.89 3.4 38.2 61 -3.3 26
10:15 1014 29.94 843 24.89 3.5 38.2 61 -3.4 26
10:20 1014 29.94 843 24.89 3.5 38.3 61 -3.3 26.1
10:25 1014 29.94 843 24.89 3.6 38.4 61 -3.2 26.2
10:30 1014 29.94 843 24.89 3.7 38.6 61 -3.3 26.1
10:35 1014 29.94 843 24.89 3.6 38.5 64 -2.5 27.6
10:40 1014 29.94 843 24.89 3.1 37.6 70 -1.9 28.7
10:45 1014 29.94 843 24.89 2.9 37.2 67 -2.6 27.4
10:50 1014 29.94 843 24.89 3 37.4 65 -2.9 26.7
10:55 1014 29.94 843 24.89 3.6 38.4 64 -2.7 27.2
11:00 1014 29.94 843 24.89 4 39.2 61 -2.9 26.8
11:05 1014 29.94 843 24.89 4.6 40.2 55 -3.6 25.5
11:10 1014 29.94 843 24.89 4.7 40.4 55 -3.6 25.6
11:15 1014 29.94 843 24.89 4.8 40.6 54 -3.7 25.3
11:20 1014 29.94 843 24.89 5.1 41.3 49 -4.8 23.3
11:25 1014 29.94 843 24.89 5.4 41.7 45 -5.7 21.7
11:30 1014 29.94 843 24.89 5.5 41.8 46 -5.1 22.8
11:35 1014 29.94 843 24.89 5.4 41.8 45 -5.4 22.2
11:40 1013 29.91 843 24.89 5.6 42 44 -5.6 21.9
11:45 1013 29.91 843 24.89 6 42.8 43 -5.6 22
11:50 1013 29.91 843 24.89 6.2 43.1 43 -5.4 22.3
11:55 1013 29.91 843 24.89 6 42.8 41 -6.1 20.9
12:00 1013 29.91 843 24.89 5.6 42.1 44 -5.8 21.6
12:05 1013 29.91 842 24.86 5.6 42 44 -5.9 21.4
12:10 1013 29.91 842 24.86 5.4 41.7 47 -5.1 22.8
12:15 1013 29.91 843 24.89 5 40.9 54 -3.5 25.6
12:20 1013 29.91 843 24.89 4.4 39.9 59 -3 26.5
12:25 1013 29.91 843 24.89 4.2 39.5 56 -3.8 25.2
12:30 1013 29.91 843 24.89 4.8 40.7 51 -4.5 24
12:35 1013 29.91 843 24.89 5.1 41.3 48 -4.9 23.2
12:40 1013 29.91 842 24.86 5.5 42 47 -5 23.1
12:45 1013 29.91 842 24.86 5.9 42.6 44 -5.5 22.1
12:50 1013 29.91 842 24.86 6 42.7 42 -6 21.2
12:55 1013 29.91 842 24.86 5.8 42.4 42 -6.1 21
13:00 1013 29.91 842 24.86 5.7 42.3 41 -6.4 20.5
13:05 1013 29.91 842 24.86 5.8 42.4 40 -6.8 19.7
13:10 1013 29.91 842 24.86 6.3 43.4 41 -5.8 21.5
13:15 1013 29.91 842 24.86 6.4 43.6 46 -4.3 24.2
13:20 1013 29.91 842 24.86 5.6 42 47 -4.8 23.4
13:25 1013 29.91 842 24.86 5.3 41.6 47 -5.1 22.8
13:30 1013 29.91 842 24.86 4.4 39.9 52 -4.6 23.8
13:35 1013 29.91 842 24.86 3.8 38.8 56 -4.1 24.6
13:40 1013 29.91 842 24.86 3.6 38.5 57 -4.1 24.6
13:45 1013 29.91 842 24.86 3.5 38.3 59 -3.8 25.1
13:50 1013 29.91 842 24.86 3.9 39 57 -3.9 25
13:55 1013 29.91 842 24.86 3.9 39 58 -3.5 25.7
14:00 1013 29.91 842 24.86 4 39.1 58 -3.5 25.6
14:05 1013 29.91 842 24.86 4 39.2 58 -3.4 25.9
14:10 1013 29.91 842 24.86 4.4 39.9 56 -3.6 25.4
14:15 1013 29.91 842 24.86 5 41 52 -4.2 24.5
14:20 1013 29.91 842 24.86 5.2 41.4 51 -4 24.8
14:25 1013 29.91 843 24.89 4.9 40.9 57 -2.9 26.8
14:30 1013 29.91 842 24.86 3.8 38.8 59 -3.4 25.8
14:35 1013 29.91 842 24.86 3.7 38.7 58 -3.7 25.4
14:40 1013 29.91 842 24.86 4 39.2 54 -4.4 24.1
14:45 1013 29.91 842 24.86 4.1 39.4 55 -4.2 24.5
14:50 1013 29.91 842 24.86 4.1 39.3 56 -4.1 24.7
14:55 1013 29.91 842 24.86 3.9 39 56 -4.1 24.6
15:00 1013 29.91 842 24.86 3.7 38.7 56 -4.3 24.3
15:05 1013 29.91 842 24.86 3.8 38.8 57 -4.1 24.7
15:10 1013 29.91 842 24.86 3.7 38.7 57 -4 24.7
15:15 1013 29.91 842 24.86 3.5 38.4 59 -3.6 25.4
15:20 1013 29.91 843 24.89 3.4 38 61 -3.5 25.7
15:25 1014 29.94 843 24.89 3.7 38.6 59 -3.6 25.5
15:30 1014 29.94 843 24.89 3.9 39.1 58 -3.6 25.6
15:35 1014 29.94 843 24.89 3.5 38.3 59 -3.7 25.3
15:40 1014 29.94 843 24.89 2.8 37.1 64 -3.4 26
15:45 1014 29.94 843 24.89 2.1 35.9 76 -1.6 29
15:50 1014 29.94 843 24.89 1.5 34.7 79 -1.8 28.7
15:55 1014 29.94 843 24.89 1.6 35 74 -2.4 27.6
16:00 1014 29.94 843 24.89 1.8 35.3 75 -2.2 28.1
16:05 1014 29.94 843 24.89 1.8 35.3 74 -2.3 27.9
16:10 1014 29.94 843 24.89 2.2 36 72 -2.3 27.9
16:15 1014 29.94 843 24.89 2.4 36.4 72 -2.1 28.2
16:20 1014 29.94 843 24.89 2.4 36.3 74 -1.8 28.7
16:25 1014 29.94 843 24.89 2.3 36.2 74 -1.8 28.8
16:30 1014 29.94 843 24.89 1.9 35.5 79 -1.4 29.5
16:35 1014 29.94 843 24.89 1.4 34.6 82 -1.4 29.5
16:40 1014 29.94 843 24.89 1.3 34.4 82 -1.4 29.5
16:45 1014 29.94 843 24.89 1.3 34.3 82 -1.5 29.3
16:50 1014 29.94 843 24.89 1.5 34.6 80 -1.6 29.1
16:55 1014 29.94 843 24.89 1.4 34.5 81 -1.5 29.3
17:00 1014 29.94 843 24.89 1.5 34.6 81 -1.5 29.3
17:05 1014 29.94 843 24.89 1.7 35 77 -2 28.5
17:10 1014 29.94 843 24.89 1.8 35.2 76 -2 28.4
17:15 1014 29.94 843 24.89 1.7 35.1 76 -2.1 28.3
17:20 1014 29.94 843 24.89 1.7 35 76 -2.1 28.2
17:25 1014 29.94 844 24.92 1.8 35.3 76 -1.9 28.6
17:30 1014 29.94 844 24.92 1.8 35.2 79 -1.4 29.5
17:35 1015 29.97 844 24.92 1.9 35.4 79 -1.5 29.4
17:40 1015 29.97 844 24.92 1.5 34.7 83 -1.1 30
17:45 1015 29.97 844 24.92 1 33.8 87 -1 30.2
17:50 1015 29.97 844 24.92 0.9 33.7 86 -1.1 30
17:55 1015 29.97 844 24.92 0.9 33.7 86 -1.1 30
18:00 1015 29.97 844 24.92 0.9 33.7 86 -1.1 30.1
18:05 1015 29.97 844 24.92 0.9 33.7 86 -1.1 30
18:10 1015 29.97 844 24.92 0.7 33.3 88 -1.1 30
18:15 1015 29.97 844 24.92 0.3 32.6 89 -1.2 29.8
18:20 1015 29.97 844 24.92 0 32 91 -1.3 29.6
18:25 1015 29.97 844 24.92 -0 32 91 -1.3 29.6
18:30 1015 29.97 844 24.92 -0.1 31.9 91 -1.3 29.6
18:35 1015 29.97 844 24.92 -0.1 31.8 91 -1.4 29.6
18:40 1015 29.97 844 24.92 -0.2 31.6 92 -1.4 29.5
18:45 1015 29.97 844 24.92 -0 31.9 92 -1.2 29.9
18:50 1015 29.97 844 24.92 0.1 32.1 92 -1.1 30.1
18:55 1015 29.97 844 24.92 0.2 32.3 92 -1 30.2
19:00 1015 29.97 844 24.92 0.2 32.4 91 -1 30.1
19:05 1015 29.97 844 24.92 0.1 32.1 91 -1.2 29.9
19:10 1015 29.97 844 24.92 -0 31.9 92 -1.3 29.7
19:15 1015 29.97 844 24.92 -0.1 31.8 92 -1.3 29.6
19:20 1015 29.97 844 24.92 -0.1 31.7 92 -1.3 29.6
19:25 1015 29.97 844 24.92 -0.1 31.7 92 -1.3 29.6
19:30 1015 29.97 844 24.92 -0.1 31.8 92 -1.3 29.6
19:35 1015 29.97 844 24.92 -0.1 31.8 92 -1.3 29.6
19:40 1015 29.97 844 24.92 -0 31.9 91 -1.3 29.7
19:45 1015 29.97 844 24.92 0.1 32.1 91 -1.3 29.7
19:50 1015 29.97 844 24.92 0.1 32.1 90 -1.4 29.6
19:55 1015 29.97 844 24.92 0.1 32.3 89 -1.5 29.3
20:00 1015 29.97 844 24.92 0.2 32.3 89 -1.5 29.3
20:05 1015 29.97 844 24.92 0.2 32.3 88 -1.7 29
20:10 1015 29.97 844 24.92 0.3 32.5 87 -1.7 29
20:15 1015 29.97 844 24.92 0.3 32.5 87 -1.6 29.1
20:20 1015 29.97 844 24.92 0.1 32.2 88 -1.7 28.9
20:25 1015 29.97 844 24.92 0 32.1 88 -1.8 28.8
20:30 1015 29.97 844 24.92 0 32.1 87 -1.8 28.7
20:35 1015 29.97 844 24.92 0.3 32.5 86 -1.8 28.7
20:40 1015 29.97 844 24.92 0.3 32.6 86 -1.7 28.9
20:45 1015 29.97 844 24.92 0.3 32.6 87 -1.7 29
20:50 1015 29.97 844 24.92 0.2 32.4 87 -1.7 28.9
20:55 1015 29.97 844 24.92 0.2 32.4 87 -1.7 28.9
21:00 1015 29.97 844 24.92 0.2 32.3 87 -1.7 28.9
21:05 1015 29.97 844 24.92 0.1 32.1 88 -1.8 28.8
21:10 1015 29.97 844 24.92 -0 32 88 -1.7 28.9
21:15 1015 29.97 844 24.92 -0 32 89 -1.6 29.1
21:20 1015 29.97 844 24.92 -0.1 31.8 90 -1.6 29.2
21:25 1015 29.97 844 24.92 -0.2 31.7 90 -1.6 29.2
21:30 1015 29.97 844 24.92 -0.1 31.8 90 -1.6 29.1
21:35 1015 29.97 844 24.92 -0.1 31.9 90 -1.6 29.2
21:40 1015 29.97 844 24.92 -0.1 31.9 89 -1.6 29.1
21:45 1015 29.97 844 24.92 -0 32 88 -1.7 28.9
21:50 1015 29.97 844 24.92 0 32.1 89 -1.6 29.1
21:55 1015 29.97 844 24.92 0 32.1 89 -1.6 29.2
22:00 1015 29.97 844 24.92 0 32.1 90 -1.5 29.4
22:05 1015 29.97 844 24.92 -0.1 31.9 91 -1.4 29.6
22:10 1015 29.97 845 24.95 -0.2 31.7 92 -1.3 29.6
22:15 1015 29.97 844 24.92 -0.2 31.6 92 -1.4 29.6
22:20 1015 29.97 844 24.92 -0.3 31.5 92 -1.4 29.5
22:25 1015 29.97 845 24.95 -0.3 31.4 93 -1.4 29.5
22:30 1015 29.97 845 24.95 -0.3 31.4 93 -1.4 29.5
22:35 1015 29.97 845 24.95 -0.2 31.6 93 -1.3 29.7
22:40 1015 29.97 845 24.95 -0.2 31.6 93 -1.3 29.7
22:45 1015 29.97 845 24.95 -0.3 31.5 93 -1.3 29.7
22:50 1015 29.97 845 24.95 -0.3 31.5 93 -1.3 29.7
22:55 1015 29.97 845 24.95 -0.2 31.6 93 -1.2 29.8
23:00 1015 29.97 845 24.95 -0.2 31.6 93 -1.2 29.8
23:05 1015 29.97 845 24.95 -0.2 31.6 93 -1.2 29.8
23:10 1015 29.97 845 24.95 -0.2 31.6 93 -1.2 29.8
23:15 1015 29.97 845 24.95 -0.3 31.5 93 -1.2 29.8
23:20 1015 29.97 845 24.95 -0.3 31.5 93 -1.3 29.7
23:25 1015 29.97 845 24.95 -0.4 31.3 93 -1.4 29.6
23:30 1015 29.97 845 24.95 -0.5 31.2 93 -1.4 29.4
23:35 1015 29.97 845 24.95 -0.5 31.2 93 -1.4 29.4
23:40 1015 29.97 845 24.95 -0.5 31.1 93 -1.5 29.4
23:45 1015 29.97 845 24.95 -0.6 31 93 -1.5 29.2
23:50 1015 29.97 845 24.95 -0.7 30.8 93 -1.6 29
23:55 1015 29.97 844 24.92 -0.7 30.7 93 -1.7 28.9
24:00 1015 29.97 845 24.95 -0.8 30.5 93 -1.8 28.8